createdAt,value
2023-02-28T00:00:35.492Z,95331.00
2023-02-28T00:03:06.811Z,95331.19
2023-02-28T00:05:36.962Z,95335.66
2023-02-28T00:08:06.338Z,95346.13
2023-02-28T00:10:35.889Z,95341.03
2023-02-28T00:13:06.852Z,95338.19
2023-02-28T00:15:37.259Z,95346.66
2023-02-28T00:18:08.266Z,95339.97
2023-02-28T00:20:37.716Z,95350.84
2023-02-28T00:23:06.736Z,95356.88
2023-02-28T00:25:35.908Z,95364.25
2023-02-28T00:28:04.911Z,95356.25
2023-02-28T00:30:35.516Z,95351.19
2023-02-28T00:33:09.057Z,95362.31
2023-02-28T00:35:38.984Z,95362.50
2023-02-28T00:38:08.298Z,95362.03
2023-02-28T00:40:37.791Z,95371.47
2023-02-28T00:43:07.002Z,95357.47
2023-02-28T00:45:36.128Z,95355.50
2023-02-28T00:48:08.768Z,95357.47
2023-02-28T00:50:37.912Z,95356.31
2023-02-28T00:53:06.891Z,95361.97
2023-02-28T00:55:36.445Z,95366.66
2023-02-28T00:58:07.179Z,95359.53
2023-02-28T01:00:36.313Z,95358.47
2023-02-28T01:03:05.508Z,95359.03
2023-02-28T01:05:36.053Z,95361.06
2023-02-28T01:08:05.464Z,95364.06
2023-02-28T01:10:34.695Z,95359.38
2023-02-28T01:13:04.583Z,95354.94
2023-02-28T01:15:34.426Z,95351.94
2023-02-28T01:18:03.698Z,95352.25
2023-02-28T01:20:35.498Z,95353.38
2023-02-28T01:23:04.614Z,95349.50
2023-02-28T01:25:36.674Z,95341.38
2023-02-28T01:28:08.054Z,95343.09
2023-02-28T01:30:37.382Z,95330.88
2023-02-28T01:33:06.319Z,95339.16
2023-02-28T01:35:38.658Z,95345.47
2023-02-28T01:38:21.187Z,95351.13
2023-02-28T01:40:52.958Z,95357.63
2023-02-28T01:43:28.564Z,95350.13
2023-02-28T01:45:59.634Z,95341.25
2023-02-28T01:48:33.922Z,95339.03
2023-02-28T01:51:10.738Z,95342.25
2023-02-28T01:53:44.905Z,95338.59
2023-02-28T01:56:21.684Z,95340.25
2023-02-28T01:58:55.082Z,95345.94
2023-02-28T02:01:29.261Z,95349.59
2023-02-28T02:04:01.777Z,95344.78
2023-02-28T02:06:36.744Z,95350.63
2023-02-28T02:09:05.958Z,95346.22
2023-02-28T02:11:36.505Z,95352.03
2023-02-28T02:14:38.536Z,95348.19
2023-02-28T02:17:22.072Z,95338.72
2023-02-28T02:20:18.021Z,95346.06
2023-02-28T02:23:24.376Z,95347.31
2023-02-28T02:25:57.476Z,95346.09
2023-02-28T02:28:50.169Z,95347.75
2023-02-28T02:32:07.340Z,95341.69
2023-02-28T02:34:48.214Z,95342.69
2023-02-28T02:37:32.503Z,95337.91
2023-02-28T02:40:13.959Z,95346.22
2023-02-28T02:42:52.133Z,95334.91
2023-02-28T02:45:27.368Z,95339.13
2023-02-28T02:47:59.385Z,95336.59
2023-02-28T02:50:36.538Z,95343.09
2023-02-28T02:53:07.791Z,95347.38
2023-02-28T02:55:41.556Z,95351.00
2023-02-28T02:58:15.732Z,95348.34
2023-02-28T03:00:49.348Z,95359.31
2023-02-28T03:03:21.916Z,95356.47
2023-02-28T03:05:53.338Z,95355.06
2023-02-28T03:08:22.302Z,95357.91
2023-02-28T03:10:53.311Z,95346.63
2023-02-28T03:13:39.746Z,95353.69
2023-02-28T03:16:46.413Z,95366.47
2023-02-28T03:19:33.770Z,95367.84
2023-02-28T03:22:27.110Z,95361.81
2023-02-28T03:25:03.566Z,95362.22
2023-02-28T03:27:43.865Z,95366.28
2023-02-28T03:30:21.809Z,95370.34
2023-02-28T03:32:58.421Z,95381.69
2023-02-28T03:35:31.101Z,95379.09
2023-02-28T03:38:05.915Z,95379.69
2023-02-28T03:40:40.642Z,95378.66
2023-02-28T03:43:15.794Z,95382.13
2023-02-28T03:45:48.174Z,95376.25
2023-02-28T03:48:21.288Z,95376.06
2023-02-28T03:50:54.440Z,95382.94
2023-02-28T03:53:31.737Z,95397.91
2023-02-28T03:56:07.710Z,95396.50
2023-02-28T03:58:43.792Z,95394.47
2023-02-28T04:01:18.783Z,95400.09
2023-02-28T04:03:48.537Z,95395.28
2023-02-28T04:06:20.678Z,95400.13
2023-02-28T04:08:52.446Z,95409.44
2023-02-28T04:11:38.907Z,95412.50
2023-02-28T04:14:09.604Z,95411.69
2023-02-28T04:16:41.300Z,95406.66
2023-02-28T04:19:16.419Z,95414.38
2023-02-28T04:21:46.886Z,95419.44
2023-02-28T04:24:20.593Z,95427.72
2023-02-28T04:26:51.538Z,95420.78
2023-02-28T04:29:24.018Z,95427.72
2023-02-28T04:31:54.460Z,95421.44
2023-02-28T04:34:24.879Z,95427.72
2023-02-28T04:37:11.475Z,95412.53
2023-02-28T04:39:44.889Z,95408.91
2023-02-28T04:42:15.966Z,95404.06
2023-02-28T04:44:45.161Z,95405.06
2023-02-28T04:47:14.248Z,95412.16
2023-02-28T04:49:44.670Z,95418.03
2023-02-28T04:52:14.559Z,95414.97
2023-02-28T04:54:45.039Z,95417.22
2023-02-28T04:57:14.219Z,95421.47
2023-02-28T04:59:43.261Z,95417.41
2023-02-28T05:02:12.269Z,95422.72
2023-02-28T05:04:41.339Z,95419.47
2023-02-28T05:07:10.957Z,95423.50
2023-02-28T05:09:40.707Z,95427.97
2023-02-28T05:12:11.952Z,95425.94
2023-02-28T05:14:41.849Z,95435.25
2023-02-28T05:17:12.082Z,95438.50
2023-02-28T05:19:41.135Z,95436.69
2023-02-28T05:22:16.494Z,95441.94
2023-02-28T05:24:46.711Z,95437.28
2023-02-28T05:27:17.734Z,95441.94
2023-02-28T05:29:46.872Z,95447.41
2023-02-28T05:32:16.117Z,95436.69
2023-02-28T05:34:45.208Z,95443.19
2023-02-28T05:37:18.037Z,95455.91
2023-02-28T05:39:47.040Z,95443.75
2023-02-28T05:42:17.635Z,95444.97
2023-02-28T05:44:46.618Z,95443.16
2023-02-28T05:47:16.807Z,95446.78
2023-02-28T05:49:45.796Z,95451.47
2023-02-28T05:52:14.870Z,95454.09
2023-02-28T05:54:43.949Z,95458.97
2023-02-28T05:57:22.888Z,95449.44
2023-02-28T05:59:55.829Z,95457.97
2023-02-28T06:02:25.060Z,95460.78
2023-02-28T06:04:54.068Z,95463.22
2023-02-28T06:07:23.713Z,95465.84
2023-02-28T06:09:52.823Z,95466.69
2023-02-28T06:12:21.838Z,95470.13
2023-02-28T06:14:51.108Z,95469.91
2023-02-28T06:17:21.880Z,95470.13
2023-02-28T06:19:51.149Z,95473.75
2023-02-28T06:22:20.136Z,95478.44
2023-02-28T06:24:49.443Z,95480.47
2023-02-28T06:27:18.451Z,95490.78
2023-02-28T06:29:47.622Z,95485.53
2023-02-28T06:32:16.834Z,95489.56
2023-02-28T06:34:47.607Z,95485.09
2023-02-28T06:37:16.933Z,95495.25
2023-02-28T06:39:46.261Z,95494.81
2023-02-28T06:42:15.414Z,95491.56
2023-02-28T06:44:44.589Z,95495.03
2023-02-28T06:47:13.789Z,95499.66
2023-02-28T06:49:42.801Z,95500.50
2023-02-28T06:52:14.422Z,95502.72
2023-02-28T06:54:43.532Z,95493.41
2023-02-28T06:57:12.561Z,95506.41
2023-02-28T06:59:41.741Z,95499.50
2023-02-28T07:02:12.090Z,95498.91
2023-02-28T07:04:41.751Z,95497.88
2023-02-28T07:07:11.416Z,95505.41
2023-02-28T07:09:41.868Z,95515.31
2023-02-28T07:12:10.996Z,95505.00
2023-02-28T07:14:40.179Z,95500.72
2023-02-28T07:17:10.232Z,95515.53
2023-02-28T07:19:39.390Z,95495.06
2023-02-28T07:22:08.907Z,95503.97
2023-02-28T07:24:37.992Z,95505.59
2023-02-28T07:27:08.472Z,95501.16
2023-02-28T07:29:38.546Z,95500.53
2023-02-28T07:32:07.825Z,95498.13
2023-02-28T07:34:37.094Z,95499.53
2023-02-28T07:37:06.787Z,95494.84
2023-02-28T07:39:36.365Z,95491.81
2023-02-28T07:42:11.609Z,95495.47
2023-02-28T07:44:43.919Z,95500.13
2023-02-28T07:47:15.482Z,95497.06
2023-02-28T07:49:44.593Z,95500.53
2023-02-28T07:52:16.511Z,95502.56
2023-02-28T07:54:46.332Z,95505.19
2023-02-28T07:57:17.114Z,95510.03
2023-02-28T07:59:46.292Z,95515.31
2023-02-28T08:02:16.806Z,95518.53
2023-02-28T08:04:46.197Z,95514.28
2023-02-28T08:07:15.791Z,95520.78
2023-02-28T08:09:45.597Z,95519.94
2023-02-28T08:12:15.058Z,95518.75
2023-02-28T08:14:45.458Z,95517.97
2023-02-28T08:17:14.822Z,95517.31
2023-02-28T08:19:44.107Z,95524.03
2023-02-28T08:22:13.264Z,95519.13
2023-02-28T08:24:44.214Z,95527.88
2023-02-28T08:27:15.602Z,95522.19
2023-02-28T08:29:46.716Z,95521.78
2023-02-28T08:32:29.061Z,95520.38
2023-02-28T08:34:59.155Z,95522.78
2023-02-28T08:37:28.395Z,95512.22
2023-02-28T08:40:19.470Z,95519.53
2023-02-28T08:42:49.456Z,95522.16
2023-02-28T08:45:20.060Z,95517.31
2023-02-28T08:47:49.125Z,95513.22
2023-02-28T08:50:18.611Z,95516.22
2023-02-28T08:52:48.311Z,95515.00
2023-02-28T08:55:17.382Z,95519.47
2023-02-28T08:57:46.576Z,95509.72
2023-02-28T09:00:16.241Z,95506.66
2023-02-28T09:02:46.666Z,95508.69
2023-02-28T09:05:15.686Z,95507.09
2023-02-28T09:07:44.773Z,95500.38
2023-02-28T09:10:13.909Z,95507.25
2023-02-28T09:12:43.016Z,95502.38
2023-02-28T09:15:13.173Z,95494.63
2023-02-28T09:17:42.826Z,95503.50
2023-02-28T09:20:19.150Z,95500.63
2023-02-28T09:22:48.280Z,95500.63
2023-02-28T09:25:18.218Z,95501.19
2023-02-28T09:27:49.568Z,95502.22
2023-02-28T09:30:19.702Z,95502.63
2023-02-28T09:32:54.929Z,95503.59
2023-02-28T09:35:28.014Z,95489.97
2023-02-28T09:37:59.462Z,95491.06
2023-02-28T09:40:29.075Z,95493.81
2023-02-28T09:42:59.825Z,95490.56
2023-02-28T09:45:35.046Z,95497.34
2023-02-28T09:48:11.034Z,95494.91
2023-02-28T09:50:45.168Z,95494.22
2023-02-28T09:53:24.751Z,95494.91
2023-02-28T09:55:57.680Z,95498.69
2023-02-28T09:58:34.469Z,95494.84
2023-02-28T10:01:10.001Z,95500.88
2023-02-28T10:03:42.743Z,95497.38
2023-02-28T10:06:19.433Z,95491.38
2023-02-28T10:08:58.790Z,95498.97
2023-02-28T10:11:30.446Z,95494.66
2023-02-28T10:14:05.636Z,95484.06
2023-02-28T10:16:39.300Z,95485.16
2023-02-28T10:19:14.503Z,95480.59
2023-02-28T10:21:50.418Z,95493.72
2023-02-28T10:24:25.865Z,95475.75
2023-02-28T10:26:59.524Z,95476.97
2023-02-28T10:29:29.384Z,95477.81
2023-02-28T10:31:59.326Z,95474.97
2023-02-28T10:34:28.328Z,95466.72
2023-02-28T10:37:08.740Z,95463.81
2023-02-28T10:39:40.379Z,95453.78
2023-02-28T10:42:27.410Z,95452.22
2023-02-28T10:45:14.571Z,95447.41
2023-02-28T10:47:54.984Z,95442.56
2023-02-28T10:50:39.188Z,95439.75
2023-02-28T10:53:18.014Z,95431.69
2023-02-28T10:55:47.069Z,95428.91
2023-02-28T10:58:25.835Z,95426.97
2023-02-28T11:00:55.258Z,95417.13
2023-02-28T11:03:32.807Z,95410.81
2023-02-28T11:06:09.188Z,95414.69
2023-02-28T11:08:48.293Z,95398.59
2023-02-28T11:11:19.106Z,95406.06
2023-02-28T11:13:51.202Z,95397.81
2023-02-28T11:16:20.541Z,95393.44
2023-02-28T11:18:52.526Z,95394.84
2023-02-28T11:21:26.363Z,95396.22
2023-02-28T11:24:04.766Z,95396.91
2023-02-28T11:26:45.655Z,95388.84
2023-02-28T11:29:21.811Z,95400.03
2023-02-28T11:32:23.754Z,95396.13
2023-02-28T11:35:05.848Z,95396.47
2023-02-28T11:37:35.691Z,95395.31
2023-02-28T11:40:15.136Z,95403.09
2023-02-28T11:42:57.742Z,95400.22
2023-02-28T11:45:45.339Z,95394.16
2023-02-28T11:48:24.653Z,95389.13
2023-02-28T11:51:03.327Z,95382.63
2023-02-28T11:53:50.663Z,95383.44
2023-02-28T11:56:30.773Z,95377.56
2023-02-28T11:59:25.931Z,95383.91
2023-02-28T12:02:22.631Z,95380.56
2023-02-28T12:05:01.998Z,95384.50
2023-02-28T12:07:43.013Z,95381.69
2023-02-28T12:10:23.863Z,95375.59
2023-02-28T12:13:08.776Z,95378.59
2023-02-28T12:15:53.732Z,95376.31
2023-02-28T12:18:44.965Z,95372.91
2023-02-28T12:21:20.786Z,95372.84
2023-02-28T12:24:11.862Z,95376.41
2023-02-28T12:26:44.122Z,95375.13
2023-02-28T12:29:21.855Z,95369.00
2023-02-28T12:31:56.060Z,95369.72
2023-02-28T12:34:33.456Z,95366.13
2023-02-28T12:37:09.537Z,95369.00
2023-02-28T12:39:50.225Z,95361.16
2023-02-28T12:42:26.631Z,95364.28
2023-02-28T12:45:00.833Z,95348.72
2023-02-28T12:47:32.712Z,95365.66
2023-02-28T12:50:06.177Z,95365.53
2023-02-28T12:52:44.050Z,95352.88
2023-02-28T12:55:19.859Z,95349.19
2023-02-28T12:57:58.752Z,95351.25
2023-02-28T13:00:36.159Z,95349.97
2023-02-28T13:03:35.076Z,95346.56
2023-02-28T13:06:20.498Z,95350.47
2023-02-28T13:09:11.098Z,95349.69
2023-02-28T13:11:46.058Z,95344.38
2023-02-28T13:14:31.688Z,95337.41
2023-02-28T13:17:16.771Z,95338.16
2023-02-28T13:19:48.904Z,95341.78
2023-02-28T13:22:23.478Z,95337.47
2023-02-28T13:24:54.717Z,95337.66
2023-02-28T13:27:41.914Z,95339.84
2023-02-28T13:30:47.691Z,95328.38
2023-02-28T13:33:36.152Z,95333.13
2023-02-28T13:36:28.344Z,95325.94
2023-02-28T13:39:01.449Z,95324.44
2023-02-28T13:41:45.932Z,95322.06
2023-02-28T13:44:19.127Z,95322.00
2023-02-28T13:47:07.692Z,95327.13
2023-02-28T13:49:38.937Z,95319.41
2023-02-28T13:52:20.480Z,95314.78
2023-02-28T13:55:27.886Z,95306.69
2023-02-28T13:58:23.360Z,95309.78
2023-02-28T14:01:16.709Z,95308.06
2023-02-28T14:04:01.140Z,95306.47
2023-02-28T14:06:34.175Z,95301.28
2023-02-28T14:09:08.917Z,95292.09
2023-02-28T14:11:40.580Z,95297.28
2023-02-28T14:14:11.837Z,95290.69
2023-02-28T14:16:44.205Z,95293.25
2023-02-28T14:19:16.974Z,95301.66
2023-02-28T14:22:10.489Z,95298.94
2023-02-28T14:25:02.514Z,95305.38
2023-02-28T14:27:40.114Z,95299.84
2023-02-28T14:30:56.565Z,95306.06
2023-02-28T14:33:34.420Z,95305.94
2023-02-28T14:36:14.820Z,95300.63
2023-02-28T14:38:49.486Z,95307.06
2023-02-28T14:41:26.933Z,95299.94
2023-02-28T14:43:58.481Z,95294.41
2023-02-28T14:46:32.997Z,95293.94
2023-02-28T14:49:03.008Z,95296.59
2023-02-28T14:51:32.079Z,95298.44
2023-02-28T14:54:04.768Z,95289.41
2023-02-28T14:56:38.010Z,95293.38
2023-02-28T14:59:08.466Z,95290.47
2023-02-28T15:01:37.626Z,95292.53
2023-02-28T15:04:08.977Z,95300.78
2023-02-28T15:06:38.185Z,95302.50
2023-02-28T15:09:13.992Z,95295.00
2023-02-28T15:11:44.041Z,95307.81
2023-02-28T15:14:20.550Z,95309.97
2023-02-28T15:16:55.588Z,95302.97
2023-02-28T15:19:28.483Z,95306.84
2023-02-28T15:22:02.105Z,95309.06
2023-02-28T15:24:40.586Z,95318.31
2023-02-28T15:27:14.661Z,95320.47
2023-02-28T15:29:52.045Z,95332.44
2023-02-28T15:32:29.854Z,95319.38
2023-02-28T15:35:00.811Z,95328.72
2023-02-28T15:37:40.760Z,95336.94
2023-02-28T15:40:25.479Z,95326.16
2023-02-28T15:43:02.901Z,95337.28
2023-02-28T15:45:39.555Z,95343.53
2023-02-28T15:48:16.195Z,95344.75
2023-02-28T15:50:45.799Z,95338.66
2023-02-28T15:53:22.760Z,95350.53
2023-02-28T15:56:03.352Z,95356.25
2023-02-28T15:58:32.653Z,95351.16
2023-02-28T16:01:19.992Z,95358.09
2023-02-28T16:03:51.595Z,95355.47
2023-02-28T16:06:41.836Z,95361.22
2023-02-28T16:09:14.690Z,95361.84
2023-02-28T16:11:48.700Z,95365.50
2023-02-28T16:14:21.957Z,95382.00
2023-02-28T16:16:54.242Z,95373.69
2023-02-28T16:19:24.112Z,95381.41
2023-02-28T16:21:53.940Z,95382.41
2023-02-28T16:24:23.106Z,95378.56
2023-02-28T16:26:57.157Z,95385.16
2023-02-28T16:29:29.192Z,95389.34
2023-02-28T16:31:59.100Z,95393.94
2023-02-28T16:34:28.276Z,95394.94
2023-02-28T16:36:57.630Z,95389.28
2023-02-28T16:39:27.175Z,95400.84
2023-02-28T16:41:57.863Z,95396.84
2023-02-28T16:44:31.681Z,95406.03
2023-02-28T16:47:02.600Z,95407.06
2023-02-28T16:49:32.607Z,95410.97
2023-02-28T16:52:01.551Z,95410.16
2023-02-28T16:54:31.708Z,95410.13
2023-02-28T16:57:02.805Z,95415.44
2023-02-28T16:59:33.273Z,95415.19
2023-02-28T17:02:02.690Z,95420.06
2023-02-28T17:04:31.938Z,95427.16
2023-02-28T17:07:01.270Z,95424.72
2023-02-28T17:09:41.426Z,95423.34
2023-02-28T17:12:13.689Z,95433.06
2023-02-28T17:14:42.870Z,95419.06
2023-02-28T17:17:19.942Z,95418.03
2023-02-28T17:19:53.745Z,95423.53
2023-02-28T17:22:22.976Z,95417.03
2023-02-28T17:24:52.281Z,95415.41
2023-02-28T17:27:22.983Z,95411.53
2023-02-28T17:29:52.057Z,95414.16
2023-02-28T17:32:21.349Z,95408.69
2023-02-28T17:34:50.477Z,95415.59
2023-02-28T17:37:19.633Z,95413.38
2023-02-28T17:39:49.267Z,95410.94
2023-02-28T17:42:22.152Z,95414.78
2023-02-28T17:44:51.332Z,95414.41
2023-02-28T17:47:20.955Z,95411.97
2023-02-28T17:49:51.458Z,95419.25
2023-02-28T17:52:23.291Z,95416.03
2023-02-28T17:54:52.517Z,95415.41
2023-02-28T17:57:23.713Z,95413.84
2023-02-28T17:59:53.375Z,95410.94
2023-02-28T18:02:22.567Z,95416.25
2023-02-28T18:04:51.906Z,95416.66
2023-02-28T18:07:24.613Z,95411.22
2023-02-28T18:09:54.661Z,95409.75
2023-02-28T18:12:25.156Z,95413.00
2023-02-28T18:14:54.534Z,95406.97
2023-02-28T18:17:23.762Z,95411.22
2023-02-28T18:19:52.825Z,95405.94
2023-02-28T18:22:22.898Z,95407.97
2023-02-28T18:24:51.953Z,95401.69
2023-02-28T18:27:25.486Z,95412.63
2023-02-28T18:29:56.421Z,95411.63
2023-02-28T18:32:27.944Z,95415.69
2023-02-28T18:34:57.685Z,95417.09
2023-02-28T18:37:27.549Z,95418.91
2023-02-28T18:39:57.200Z,95419.53
2023-02-28T18:42:26.145Z,95414.47
2023-02-28T18:44:56.677Z,95422.59
2023-02-28T18:47:26.757Z,95416.53
2023-02-28T18:49:55.977Z,95419.38
2023-02-28T18:52:25.090Z,95425.47
2023-02-28T18:54:54.125Z,95421.78
2023-02-28T18:57:23.901Z,95416.31
2023-02-28T18:59:53.154Z,95424.81
2023-02-28T19:02:23.681Z,95418.75
2023-02-28T19:04:53.451Z,95428.28
2023-02-28T19:07:22.568Z,95429.09
2023-02-28T19:09:52.910Z,95423.00
2023-02-28T19:12:22.334Z,95432.97
2023-02-28T19:14:51.996Z,95427.84
2023-02-28T19:17:22.555Z,95429.88
2023-02-28T19:19:52.345Z,95434.56
2023-02-28T19:22:21.415Z,95428.25
2023-02-28T19:24:51.778Z,95447.53
2023-02-28T19:27:21.653Z,95435.00
2023-02-28T19:29:53.385Z,95440.03
2023-02-28T19:32:24.112Z,95438.38
2023-02-28T19:34:54.189Z,95439.78
2023-02-28T19:37:24.016Z,95443.28
2023-02-28T19:39:57.189Z,95444.09
2023-02-28T19:42:28.812Z,95443.66
2023-02-28T19:44:57.809Z,95448.56
2023-02-28T19:47:28.263Z,95447.75
2023-02-28T19:49:57.401Z,95442.25
2023-02-28T19:52:27.234Z,95445.75
2023-02-28T19:54:56.303Z,95444.34
2023-02-28T19:57:25.623Z,95435.81
2023-02-28T19:59:54.721Z,95437.44
2023-02-28T20:02:24.591Z,95437.88
2023-02-28T20:04:59.940Z,95429.38
2023-02-28T20:07:33.098Z,95427.91
2023-02-28T20:10:02.246Z,95423.69
2023-02-28T20:12:32.922Z,95432.00
2023-02-28T20:15:03.924Z,95430.38
2023-02-28T20:17:34.417Z,95426.94
2023-02-28T20:20:05.527Z,95431.78
2023-02-28T20:22:36.671Z,95436.06
2023-02-28T20:25:08.330Z,95438.47
2023-02-28T20:27:37.472Z,95442.53
2023-02-28T20:30:08.913Z,95435.59
2023-02-28T20:32:39.910Z,95440.88
2023-02-28T20:35:12.527Z,95449.38
2023-02-28T20:37:41.670Z,95446.97
2023-02-28T20:40:12.032Z,95442.69
2023-02-28T20:42:41.372Z,95457.72
2023-02-28T20:45:11.801Z,95453.25
2023-02-28T20:47:42.554Z,95454.66
2023-02-28T20:50:18.049Z,95456.28
2023-02-28T20:52:47.355Z,95449.81
2023-02-28T20:55:16.508Z,95453.81
2023-02-28T20:57:45.756Z,95455.47
2023-02-28T21:00:20.217Z,95457.94
2023-02-28T21:02:49.362Z,95452.88
2023-02-28T21:05:19.888Z,95451.81
2023-02-28T21:07:49.436Z,95450.44
2023-02-28T21:10:19.694Z,95452.09
2023-02-28T21:12:54.772Z,95448.19
2023-02-28T21:15:24.041Z,95452.69
2023-02-28T21:17:53.132Z,95443.75
2023-02-28T21:20:23.625Z,95458.75
2023-02-28T21:22:53.798Z,95442.13
2023-02-28T21:25:23.425Z,95444.53
2023-02-28T21:27:55.818Z,95451.25
2023-02-28T21:30:25.156Z,95445.97
2023-02-28T21:32:54.229Z,95441.34
2023-02-28T21:35:25.305Z,95437.28
2023-02-28T21:37:54.253Z,95435.66
2023-02-28T21:40:23.421Z,95437.50
2023-02-28T21:42:52.528Z,95435.28
2023-02-28T21:45:22.219Z,95431.63
2023-02-28T21:47:51.187Z,95423.09
2023-02-28T21:50:20.288Z,95421.69
2023-02-28T21:52:51.068Z,95426.34
2023-02-28T21:55:20.145Z,95426.13
2023-02-28T21:57:49.448Z,95421.31
2023-02-28T22:00:19.302Z,95409.72
2023-02-28T22:02:48.458Z,95425.97
2023-02-28T22:05:17.551Z,95423.53
2023-02-28T22:07:46.743Z,95424.94
2023-02-28T22:10:18.313Z,95424.53
2023-02-28T22:12:47.504Z,95416.03
2023-02-28T22:15:18.206Z,95419.69
2023-02-28T22:17:47.707Z,95423.72
2023-02-28T22:20:17.751Z,95417.63
2023-02-28T22:22:46.831Z,95411.56
2023-02-28T22:25:18.523Z,95415.00
2023-02-28T22:27:47.709Z,95422.50
2023-02-28T22:30:17.461Z,95418.66
2023-02-28T22:32:46.506Z,95423.13
2023-02-28T22:35:15.620Z,95420.47
2023-02-28T22:37:44.907Z,95424.13
2023-02-28T22:40:14.896Z,95424.13
2023-02-28T22:42:45.464Z,95427.16
2023-02-28T22:45:14.493Z,95426.75
2023-02-28T22:47:43.551Z,95438.91
2023-02-28T22:50:13.785Z,95432.03
2023-02-28T22:52:43.279Z,95429.41
2023-02-28T22:55:12.653Z,95437.06
2023-02-28T22:57:42.622Z,95435.25
2023-02-28T23:00:16.087Z,95430.78
2023-02-28T23:02:45.916Z,95440.16
2023-02-28T23:05:16.016Z,95430.00
2023-02-28T23:07:45.040Z,95434.47
2023-02-28T23:10:19.356Z,95426.16
2023-02-28T23:12:51.759Z,95421.91
2023-02-28T23:15:24.411Z,95423.75
2023-02-28T23:17:53.736Z,95418.66
2023-02-28T23:20:23.217Z,95416.66
2023-02-28T23:22:52.406Z,95417.03
2023-02-28T23:25:22.570Z,95415.41
2023-02-28T23:27:51.921Z,95413.59
2023-02-28T23:30:22.697Z,95407.91
2023-02-28T23:32:52.340Z,95401.84
2023-02-28T23:35:21.347Z,95398.41
2023-02-28T23:37:50.622Z,95392.13
2023-02-28T23:40:19.754Z,95382.00
2023-02-28T23:42:49.382Z,95379.16
2023-02-28T23:45:18.760Z,95384.41
2023-02-28T23:48:08.094Z,95384.63
2023-02-28T23:50:39.961Z,95375.72
2023-02-28T23:53:11.149Z,95373.72
2023-02-28T23:55:40.305Z,95368.63
2023-02-28T23:58:09.724Z,95357.47
